Portada
METAR-TAF:

METAR-TAF

Aeroports :

Arnhem, Països Baixos

latitud: 52-04N, longitud: 005-53E, altitud: 48 m

Observació

L'informe es va fer fa 30 minuts, a les 13:55 UTC
Vent 7 kt amb direcció variable
Temperatura 9°C
Humitat 29%
Pressió 1030 hPa
Visibilitat 10 km o més

METAR: EHDL 311355Z AUTO VRB07KT 9999 NCD 09/M08 Q1030 BLU

Hora: 16:25 (14:25 UTC)


TAF: manca

Observacions i pronòstics meteorològics de més de 4000 aeroports (METAR i TAF).

Les estacions disponibles són els punts grocs i vermells al mapa.

Posi el ratolí al punt desitjat per veure el nom de l'estació.

Feu clic per veure les observacions i els pronòstics meteorològics.

Per canviar el mapa: feu clic els botons verds amb una creu de color negre per apropar; al botó verd amb un guió per allunyar la imatge; o en les fletxes verdes per a mapes adjacents.


METAR-TAF: